sensor_id;sensor_type;location;lat;lon;timestamp;P1;durP1;ratioP1;P2;durP2;ratioP2
81701;SDS011;71115;52.150;4.510;2023-07-28T00:02:08;1.50;;;0.68;;
81701;SDS011;71115;52.150;4.510;2023-07-28T00:04:34;1.35;;;0.63;;
81701;SDS011;71115;52.150;4.510;2023-07-28T00:07:01;2.25;;;0.65;;
81701;SDS011;71115;52.150;4.510;2023-07-28T00:09:27;1.58;;;0.82;;
81701;SDS011;71115;52.150;4.510;2023-07-28T00:11:53;2.28;;;0.70;;
81701;SDS011;71115;52.150;4.510;2023-07-28T00:14:19;2.40;;;0.70;;
81701;SDS011;71115;52.150;4.510;2023-07-28T00:16:45;1.90;;;0.57;;
81701;SDS011;71115;52.150;4.510;2023-07-28T00:19:11;3.70;;;0.80;;
81701;SDS011;71115;52.150;4.510;2023-07-28T00:21:37;3.47;;;0.90;;
81701;SDS011;71115;52.150;4.510;2023-07-28T00:24:03;1.05;;;0.60;;
81701;SDS011;71115;52.150;4.510;2023-07-28T00:26:29;3.05;;;0.98;;
81701;SDS011;71115;52.150;4.510;2023-07-28T00:28:55;2.47;;;0.63;;
81701;SDS011;71115;52.150;4.510;2023-07-28T00:31:23;3.22;;;1.00;;
81701;SDS011;71115;52.150;4.510;2023-07-28T00:33:49;2.28;;;0.80;;
81701;SDS011;71115;52.150;4.510;2023-07-28T00:36:15;2.03;;;0.60;;
81701;SDS011;71115;52.150;4.510;2023-07-28T00:38:41;2.38;;;0.68;;
81701;SDS011;71115;52.150;4.510;2023-07-28T00:41:07;3.75;;;0.90;;
81701;SDS011;71115;52.150;4.510;2023-07-28T00:43:33;2.67;;;1.17;;
81701;SDS011;71115;52.150;4.510;2023-07-28T00:45:58;2.20;;;0.73;;
81701;SDS011;71115;52.150;4.510;2023-07-28T00:48:24;2.78;;;0.80;;
81701;SDS011;71115;52.150;4.510;2023-07-28T00:50:51;2.38;;;0.68;;
81701;SDS011;71115;52.150;4.510;2023-07-28T00:53:19;2.22;;;0.77;;
81701;SDS011;71115;52.150;4.510;2023-07-28T00:58:11;2.47;;;0.90;;
81701;SDS011;71115;52.150;4.510;2023-07-28T01:00:37;1.80;;;0.70;;
81701;SDS011;71115;52.150;4.510;2023-07-28T01:03:03;1.95;;;0.77;;
81701;SDS011;71115;52.150;4.510;2023-07-28T01:08:30;2.60;;;0.80;;
81701;SDS011;71115;52.150;4.510;2023-07-28T01:10:58;1.92;;;0.80;;
81701;SDS011;71115;52.150;4.510;2023-07-28T01:13:24;2.65;;;1.00;;
81701;SDS011;71115;52.150;4.510;2023-07-28T01:15:50;1.33;;;0.57;;
81701;SDS011;71115;52.150;4.510;2023-07-28T01:18:16;2.45;;;0.85;;
81701;SDS011;71115;52.150;4.510;2023-07-28T01:20:42;3.92;;;0.82;;
81701;SDS011;71115;52.150;4.510;2023-07-28T01:28:08;2.78;;;0.82;;
81701;SDS011;71115;52.150;4.510;2023-07-28T01:30:35;2.50;;;1.08;;
81701;SDS011;71115;52.150;4.510;2023-07-28T01:35:27;2.05;;;0.70;;
81701;SDS011;71115;52.150;4.510;2023-07-28T01:37:53;2.40;;;0.70;;
81701;SDS011;71115;52.150;4.510;2023-07-28T01:40:20;2.90;;;0.80;;
81701;SDS011;71115;52.150;4.510;2023-07-28T01:42:46;3.53;;;0.93;;
81701;SDS011;71115;52.150;4.510;2023-07-28T01:45:12;3.15;;;1.00;;
81701;SDS011;71115;52.150;4.510;2023-07-28T01:47:38;2.72;;;1.02;;
81701;SDS011;71115;52.150;4.510;2023-07-28T01:50:04;3.17;;;0.80;;
81701;SDS011;71115;52.150;4.510;2023-07-28T01:52:30;2.08;;;1.00;;
81701;SDS011;71115;52.150;4.510;2023-07-28T01:54:56;2.40;;;0.80;;
81701;SDS011;71115;52.150;4.510;2023-07-28T01:57:22;1.88;;;0.80;;
81701;SDS011;71115;52.150;4.510;2023-07-28T01:59:52;2.63;;;0.90;;
81701;SDS011;71115;52.150;4.510;2023-07-28T02:02:18;2.30;;;0.85;;
81701;SDS011;71115;52.150;4.510;2023-07-28T02:04:44;1.98;;;0.70;;
81701;SDS011;71115;52.150;4.510;2023-07-28T02:07:11;1.98;;;0.93;;
81701;SDS011;71115;52.150;4.510;2023-07-28T02:09:37;2.50;;;0.80;;
81701;SDS011;71115;52.150;4.510;2023-07-28T02:12:03;2.05;;;0.85;;
81701;SDS011;71115;52.150;4.510;2023-07-28T02:14:29;3.25;;;1.00;;
81701;SDS011;71115;52.150;4.510;2023-07-28T02:16:55;4.75;;;0.85;;
81701;SDS011;71115;52.150;4.510;2023-07-28T02:19:21;2.65;;;0.75;;
81701;SDS011;71115;52.150;4.510;2023-07-28T02:21:47;2.22;;;0.88;;
81701;SDS011;71115;52.150;4.510;2023-07-28T02:24:13;3.15;;;1.02;;
81701;SDS011;71115;52.150;4.510;2023-07-28T02:26:39;1.88;;;0.80;;
81701;SDS011;71115;52.150;4.510;2023-07-28T02:29:05;2.22;;;0.80;;
81701;SDS011;71115;52.150;4.510;2023-07-28T02:31:31;2.20;;;0.80;;
81701;SDS011;71115;52.150;4.510;2023-07-28T02:33:57;2.38;;;0.82;;
81701;SDS011;71115;52.150;4.510;2023-07-28T02:36:23;3.75;;;0.90;;
81701;SDS011;71115;52.150;4.510;2023-07-28T02:38:49;2.00;;;0.75;;
81701;SDS011;71115;52.150;4.510;2023-07-28T02:41:15;3.00;;;0.90;;
81701;SDS011;71115;52.150;4.510;2023-07-28T02:43:41;2.28;;;0.88;;
81701;SDS011;71115;52.150;4.510;2023-07-28T02:46:07;1.95;;;0.88;;
81701;SDS011;71115;52.150;4.510;2023-07-28T02:48:33;3.30;;;0.80;;
81701;SDS011;71115;52.150;4.510;2023-07-28T02:50:59;1.92;;;0.85;;
81701;SDS011;71115;52.150;4.510;2023-07-28T02:53:25;3.25;;;1.00;;
81701;SDS011;71115;52.150;4.510;2023-07-28T02:55:51;4.13;;;1.10;;
81701;SDS011;71115;52.150;4.510;2023-07-28T02:58:17;2.92;;;1.02;;
81701;SDS011;71115;52.150;4.510;2023-07-28T03:00:43;1.60;;;0.80;;
81701;SDS011;71115;52.150;4.510;2023-07-28T03:03:11;2.38;;;0.75;;
81701;SDS011;71115;52.150;4.510;2023-07-28T03:05:38;4.35;;;1.17;;
81701;SDS011;71115;52.150;4.510;2023-07-28T03:08:04;2.33;;;0.73;;
81701;SDS011;71115;52.150;4.510;2023-07-28T03:10:31;2.03;;;0.75;;
81701;SDS011;71115;52.150;4.510;2023-07-28T03:12:57;2.30;;;1.00;;
81701;SDS011;71115;52.150;4.510;2023-07-28T03:15:23;2.85;;;0.90;;
81701;SDS011;71115;52.150;4.510;2023-07-28T03:17:49;2.05;;;0.77;;
81701;SDS011;71115;52.150;4.510;2023-07-28T03:20:16;2.47;;;0.80;;
81701;SDS011;71115;52.150;4.510;2023-07-28T03:22:42;2.15;;;0.82;;
81701;SDS011;71115;52.150;4.510;2023-07-28T03:25:08;2.25;;;0.80;;
81701;SDS011;71115;52.150;4.510;2023-07-28T03:27:34;1.35;;;0.60;;
81701;SDS011;71115;52.150;4.510;2023-07-28T03:30:01;2.33;;;0.85;;
81701;SDS011;71115;52.150;4.510;2023-07-28T03:34:53;4.00;;;1.00;;
81701;SDS011;71115;52.150;4.510;2023-07-28T03:37:19;1.90;;;0.93;;
81701;SDS011;71115;52.150;4.510;2023-07-28T03:39:45;2.60;;;1.10;;
81701;SDS011;71115;52.150;4.510;2023-07-28T03:42:11;4.68;;;0.90;;
81701;SDS011;71115;52.150;4.510;2023-07-28T03:44:37;3.40;;;0.80;;
81701;SDS011;71115;52.150;4.510;2023-07-28T03:47:04;3.33;;;0.90;;
81701;SDS011;71115;52.150;4.510;2023-07-28T03:49:30;2.05;;;1.00;;
81701;SDS011;71115;52.150;4.510;2023-07-28T03:51:57;4.03;;;1.15;;
81701;SDS011;71115;52.150;4.510;2023-07-28T03:54:23;2.70;;;0.80;;
81701;SDS011;71115;52.150;4.510;2023-07-28T03:56:49;1.98;;;0.80;;
81701;SDS011;71115;52.150;4.510;2023-07-28T03:59:15;1.35;;;0.70;;
81701;SDS011;71115;52.150;4.510;2023-07-28T04:01:41;3.42;;;0.98;;
81701;SDS011;71115;52.150;4.510;2023-07-28T04:04:07;3.80;;;1.10;;
81701;SDS011;71115;52.150;4.510;2023-07-28T04:06:44;2.70;;;1.00;;
81701;SDS011;71115;52.150;4.510;2023-07-28T04:09:11;1.88;;;0.80;;
81701;SDS011;71115;52.150;4.510;2023-07-28T04:11:37;1.50;;;0.75;;
81701;SDS011;71115;52.150;4.510;2023-07-28T04:14:04;2.20;;;0.90;;
81701;SDS011;71115;52.150;4.510;2023-07-28T04:16:30;2.03;;;0.80;;
81701;SDS011;71115;52.150;4.510;2023-07-28T04:18:56;2.42;;;0.85;;
81701;SDS011;71115;52.150;4.510;2023-07-28T04:23:48;1.67;;;0.80;;
81701;SDS011;71115;52.150;4.510;2023-07-28T04:26:14;2.47;;;0.95;;
81701;SDS011;71115;52.150;4.510;2023-07-28T04:28:40;2.17;;;1.00;;
81701;SDS011;71115;52.150;4.510;2023-07-28T04:31:06;3.42;;;1.15;;
81701;SDS011;71115;52.150;4.510;2023-07-28T04:33:32;2.50;;;0.90;;
81701;SDS011;71115;52.150;4.510;2023-07-28T04:35:59;2.58;;;0.90;;
81701;SDS011;71115;52.150;4.510;2023-07-28T04:38:25;2.75;;;1.08;;
81701;SDS011;71115;52.150;4.510;2023-07-28T04:40:51;3.95;;;1.02;;
81701;SDS011;71115;52.150;4.510;2023-07-28T04:43:17;2.35;;;0.85;;
81701;SDS011;71115;52.150;4.510;2023-07-28T04:45:44;3.47;;;1.10;;
81701;SDS011;71115;52.150;4.510;2023-07-28T04:48:10;3.00;;;1.10;;
81701;SDS011;71115;52.150;4.510;2023-07-28T04:50:36;2.33;;;0.80;;
81701;SDS011;71115;52.150;4.510;2023-07-28T04:53:02;3.60;;;0.90;;
81701;SDS011;71115;52.150;4.510;2023-07-28T04:57:54;3.10;;;0.95;;
81701;SDS011;71115;52.150;4.510;2023-07-28T05:00:20;2.35;;;0.70;;
81701;SDS011;71115;52.150;4.510;2023-07-28T05:02:46;2.60;;;1.05;;
81701;SDS011;71115;52.150;4.510;2023-07-28T05:05:12;4.40;;;1.02;;
81701;SDS011;71115;52.150;4.510;2023-07-28T05:07:38;3.88;;;0.93;;
81701;SDS011;71115;52.150;4.510;2023-07-28T05:10:04;2.55;;;1.05;;
81701;SDS011;71115;52.150;4.510;2023-07-28T05:14:57;2.70;;;0.90;;
81701;SDS011;71115;52.150;4.510;2023-07-28T05:17:23;2.50;;;0.98;;
81701;SDS011;71115;52.150;4.510;2023-07-28T05:19:49;2.10;;;0.88;;
81701;SDS011;71115;52.150;4.510;2023-07-28T05:22:16;2.83;;;0.95;;
81701;SDS011;71115;52.150;4.510;2023-07-28T05:24:42;1.75;;;0.70;;
81701;SDS011;71115;52.150;4.510;2023-07-28T05:27:09;2.92;;;1.10;;
81701;SDS011;71115;52.150;4.510;2023-07-28T05:29:35;5.22;;;1.30;;
81701;SDS011;71115;52.150;4.510;2023-07-28T05:32:01;2.55;;;1.10;;
81701;SDS011;71115;52.150;4.510;2023-07-28T05:34:27;2.55;;;1.08;;
81701;SDS011;71115;52.150;4.510;2023-07-28T05:36:53;2.63;;;1.00;;
81701;SDS011;71115;52.150;4.510;2023-07-28T05:39:19;2.55;;;1.02;;
81701;SDS011;71115;52.150;4.510;2023-07-28T05:41:45;3.15;;;1.13;;
81701;SDS011;71115;52.150;4.510;2023-07-28T05:44:11;3.78;;;0.90;;
81701;SDS011;71115;52.150;4.510;2023-07-28T05:46:37;3.03;;;1.05;;
81701;SDS011;71115;52.150;4.510;2023-07-28T05:49:03;2.70;;;1.10;;
81701;SDS011;71115;52.150;4.510;2023-07-28T05:53:56;2.55;;;1.10;;
81701;SDS011;71115;52.150;4.510;2023-07-28T05:56:22;3.90;;;1.50;;
81701;SDS011;71115;52.150;4.510;2023-07-28T06:01:14;2.88;;;0.90;;
81701;SDS011;71115;52.150;4.510;2023-07-28T06:03:40;2.47;;;0.90;;
81701;SDS011;71115;52.150;4.510;2023-07-28T06:06:06;2.63;;;1.00;;
81701;SDS011;71115;52.150;4.510;2023-07-28T06:08:32;2.83;;;1.05;;
81701;SDS011;71115;52.150;4.510;2023-07-28T06:10:58;4.72;;;1.20;;
81701;SDS011;71115;52.150;4.510;2023-07-28T06:13:24;3.05;;;1.15;;
81701;SDS011;71115;52.150;4.510;2023-07-28T06:15:52;4.25;;;1.20;;
81701;SDS011;71115;52.150;4.510;2023-07-28T06:18:19;2.42;;;0.95;;
81701;SDS011;71115;52.150;4.510;2023-07-28T06:20:47;3.17;;;0.95;;
81701;SDS011;71115;52.150;4.510;2023-07-28T06:23:13;3.65;;;1.30;;
81701;SDS011;71115;52.150;4.510;2023-07-28T06:25:39;2.85;;;1.10;;
81701;SDS011;71115;52.150;4.510;2023-07-28T06:28:09;2.13;;;0.90;;
81701;SDS011;71115;52.150;4.510;2023-07-28T06:30:35;3.88;;;1.20;;
81701;SDS011;71115;52.150;4.510;2023-07-28T06:33:02;6.88;;;1.20;;
81701;SDS011;71115;52.150;4.510;2023-07-28T06:37:54;2.70;;;1.15;;
81701;SDS011;71115;52.150;4.510;2023-07-28T06:40:20;2.92;;;0.93;;
81701;SDS011;71115;52.150;4.510;2023-07-28T06:42:46;2.50;;;1.10;;
81701;SDS011;71115;52.150;4.510;2023-07-28T06:45:12;1.98;;;0.88;;
81701;SDS011;71115;52.150;4.510;2023-07-28T06:47:39;2.90;;;1.23;;
81701;SDS011;71115;52.150;4.510;2023-07-28T06:52:31;5.47;;;1.15;;
81701;SDS011;71115;52.150;4.510;2023-07-28T06:54:57;4.13;;;1.05;;
81701;SDS011;71115;52.150;4.510;2023-07-28T06:57:23;2.88;;;1.23;;
81701;SDS011;71115;52.150;4.510;2023-07-28T06:59:49;3.78;;;1.02;;
81701;SDS011;71115;52.150;4.510;2023-07-28T07:02:15;2.60;;;0.95;;
81701;SDS011;71115;52.150;4.510;2023-07-28T07:04:41;2.50;;;1.10;;
81701;SDS011;71115;52.150;4.510;2023-07-28T07:07:08;3.70;;;1.05;;
81701;SDS011;71115;52.150;4.510;2023-07-28T07:09:34;2.38;;;1.20;;
81701;SDS011;71115;52.150;4.510;2023-07-28T07:12:01;2.90;;;1.13;;
81701;SDS011;71115;52.150;4.510;2023-07-28T07:14:27;3.08;;;1.10;;
81701;SDS011;71115;52.150;4.510;2023-07-28T07:19:19;3.60;;;1.10;;
81701;SDS011;71115;52.150;4.510;2023-07-28T07:21:45;4.47;;;1.35;;
81701;SDS011;71115;52.150;4.510;2023-07-28T07:24:12;3.55;;;1.30;;
81701;SDS011;71115;52.150;4.510;2023-07-28T07:26:39;3.35;;;1.17;;
81701;SDS011;71115;52.150;4.510;2023-07-28T07:29:05;3.70;;;1.23;;
81701;SDS011;71115;52.150;4.510;2023-07-28T07:33:57;3.67;;;1.10;;
81701;SDS011;71115;52.150;4.510;2023-07-28T07:36:23;4.22;;;2.25;;
81701;SDS011;71115;52.150;4.510;2023-07-28T07:38:49;3.67;;;1.25;;
81701;SDS011;71115;52.150;4.510;2023-07-28T07:41:15;3.15;;;1.25;;
81701;SDS011;71115;52.150;4.510;2023-07-28T07:43:44;3.17;;;1.30;;
81701;SDS011;71115;52.150;4.510;2023-07-28T07:48:36;2.85;;;1.33;;
81701;SDS011;71115;52.150;4.510;2023-07-28T07:51:02;2.97;;;1.40;;
81701;SDS011;71115;52.150;4.510;2023-07-28T07:53:28;3.25;;;1.00;;
81701;SDS011;71115;52.150;4.510;2023-07-28T07:55:55;3.60;;;1.40;;
81701;SDS011;71115;52.150;4.510;2023-07-28T07:58:21;3.42;;;1.00;;
81701;SDS011;71115;52.150;4.510;2023-07-28T08:00:47;2.55;;;1.17;;
81701;SDS011;71115;52.150;4.510;2023-07-28T08:03:13;2.95;;;1.10;;
81701;SDS011;71115;52.150;4.510;2023-07-28T08:05:39;3.42;;;1.15;;
81701;SDS011;71115;52.150;4.510;2023-07-28T08:08:05;3.75;;;1.60;;
81701;SDS011;71115;52.150;4.510;2023-07-28T08:10:32;2.70;;;1.13;;
81701;SDS011;71115;52.150;4.510;2023-07-28T08:12:58;3.17;;;1.38;;
81701;SDS011;71115;52.150;4.510;2023-07-28T08:15:25;2.63;;;1.10;;
81701;SDS011;71115;52.150;4.510;2023-07-28T08:20:17;2.63;;;1.23;;
81701;SDS011;71115;52.150;4.510;2023-07-28T08:22:43;3.30;;;1.02;;
81701;SDS011;71115;52.150;4.510;2023-07-28T08:27:35;3.53;;;1.30;;
81701;SDS011;71115;52.150;4.510;2023-07-28T08:30:02;2.97;;;1.20;;
81701;SDS011;71115;52.150;4.510;2023-07-28T08:32:28;4.57;;;1.30;;
81701;SDS011;71115;52.150;4.510;2023-07-28T08:34:54;4.03;;;1.60;;
81701;SDS011;71115;52.150;4.510;2023-07-28T08:37:20;3.13;;;1.33;;
81701;SDS011;71115;52.150;4.510;2023-07-28T08:39:46;3.35;;;1.33;;
81701;SDS011;71115;52.150;4.510;2023-07-28T08:42:12;4.05;;;1.23;;
81701;SDS011;71115;52.150;4.510;2023-07-28T08:44:38;2.97;;;1.30;;
81701;SDS011;71115;52.150;4.510;2023-07-28T08:47:04;3.35;;;1.25;;
81701;SDS011;71115;52.150;4.510;2023-07-28T08:49:31;2.72;;;1.10;;
81701;SDS011;71115;52.150;4.510;2023-07-28T08:51:58;4.32;;;1.35;;
81701;SDS011;71115;52.150;4.510;2023-07-28T08:54:25;3.03;;;1.05;;
81701;SDS011;71115;52.150;4.510;2023-07-28T08:56:51;2.40;;;1.00;;
81701;SDS011;71115;52.150;4.510;2023-07-28T08:59:24;2.45;;;1.05;;
81701;SDS011;71115;52.150;4.510;2023-07-28T09:01:51;2.75;;;1.17;;
81701;SDS011;71115;52.150;4.510;2023-07-28T09:04:17;3.25;;;1.33;;
81701;SDS011;71115;52.150;4.510;2023-07-28T09:09:09;3.60;;;1.38;;
81701;SDS011;71115;52.150;4.510;2023-07-28T09:11:43;3.67;;;1.30;;
81701;SDS011;71115;52.150;4.510;2023-07-28T09:14:11;2.80;;;1.08;;
81701;SDS011;71115;52.150;4.510;2023-07-28T09:16:37;2.78;;;1.35;;
81701;SDS011;71115;52.150;4.510;2023-07-28T09:19:07;2.60;;;1.10;;
81701;SDS011;71115;52.150;4.510;2023-07-28T09:21:33;2.80;;;1.10;;
81701;SDS011;71115;52.150;4.510;2023-07-28T09:24:00;3.80;;;1.35;;
81701;SDS011;71115;52.150;4.510;2023-07-28T09:26:38;3.75;;;1.30;;
81701;SDS011;71115;52.150;4.510;2023-07-28T09:29:11;2.65;;;1.20;;
81701;SDS011;71115;52.150;4.510;2023-07-28T09:31:37;2.53;;;1.20;;
81701;SDS011;71115;52.150;4.510;2023-07-28T09:34:06;2.58;;;1.20;;
81701;SDS011;71115;52.150;4.510;2023-07-28T09:36:33;4.40;;;1.25;;
81701;SDS011;71115;52.150;4.510;2023-07-28T09:38:59;2.17;;;1.17;;
81701;SDS011;71115;52.150;4.510;2023-07-28T09:41:27;2.40;;;1.08;;
81701;SDS011;71115;52.150;4.510;2023-07-28T09:43:54;3.25;;;1.17;;
81701;SDS011;71115;52.150;4.510;2023-07-28T09:46:21;2.50;;;1.00;;
81701;SDS011;71115;52.150;4.510;2023-07-28T09:48:48;4.03;;;1.20;;
81701;SDS011;71115;52.150;4.510;2023-07-28T09:51:16;3.03;;;1.30;;
81701;SDS011;71115;52.150;4.510;2023-07-28T09:53:46;2.47;;;1.23;;
81701;SDS011;71115;52.150;4.510;2023-07-28T09:56:14;2.58;;;1.30;;
81701;SDS011;71115;52.150;4.510;2023-07-28T09:58:41;2.60;;;1.23;;
81701;SDS011;71115;52.150;4.510;2023-07-28T10:01:10;3.22;;;1.35;;
81701;SDS011;71115;52.150;4.510;2023-07-28T10:06:02;2.20;;;1.02;;
81701;SDS011;71115;52.150;4.510;2023-07-28T10:08:28;3.90;;;1.55;;
81701;SDS011;71115;52.150;4.510;2023-07-28T10:10:55;3.42;;;1.10;;
81701;SDS011;71115;52.150;4.510;2023-07-28T10:15:47;4.05;;;1.33;;
81701;SDS011;71115;52.150;4.510;2023-07-28T10:18:13;3.22;;;1.38;;
81701;SDS011;71115;52.150;4.510;2023-07-28T10:20:40;3.40;;;1.27;;
81701;SDS011;71115;52.150;4.510;2023-07-28T10:23:11;3.53;;;1.45;;
81701;SDS011;71115;52.150;4.510;2023-07-28T10:25:38;3.28;;;1.20;;
81701;SDS011;71115;52.150;4.510;2023-07-28T10:28:05;3.75;;;1.63;;
81701;SDS011;71115;52.150;4.510;2023-07-28T10:30:34;4.15;;;1.50;;
81701;SDS011;71115;52.150;4.510;2023-07-28T10:33:02;4.15;;;1.30;;
81701;SDS011;71115;52.150;4.510;2023-07-28T10:35:28;3.58;;;1.30;;
81701;SDS011;71115;52.150;4.510;2023-07-28T10:37:56;3.25;;;1.50;;
81701;SDS011;71115;52.150;4.510;2023-07-28T10:40:29;4.30;;;1.70;;
81701;SDS011;71115;52.150;4.510;2023-07-28T10:42:56;4.45;;;1.48;;
81701;SDS011;71115;52.150;4.510;2023-07-28T10:45:22;2.92;;;1.50;;
81701;SDS011;71115;52.150;4.510;2023-07-28T10:47:48;3.75;;;1.30;;
81701;SDS011;71115;52.150;4.510;2023-07-28T10:50:15;3.03;;;1.35;;
81701;SDS011;71115;52.150;4.510;2023-07-28T10:55:13;3.90;;;1.48;;
81701;SDS011;71115;52.150;4.510;2023-07-28T10:57:43;2.28;;;1.25;;
81701;SDS011;71115;52.150;4.510;2023-07-28T11:00:09;4.45;;;1.30;;
81701;SDS011;71115;52.150;4.510;2023-07-28T11:02:43;2.92;;;1.38;;
81701;SDS011;71115;52.150;4.510;2023-07-28T11:05:10;3.88;;;1.35;;
81701;SDS011;71115;52.150;4.510;2023-07-28T11:07:37;3.38;;;1.40;;
81701;SDS011;71115;52.150;4.510;2023-07-28T11:12:31;3.13;;;1.30;;
81701;SDS011;71115;52.150;4.510;2023-07-28T11:17:23;3.63;;;1.20;;
81701;SDS011;71115;52.150;4.510;2023-07-28T11:19:49;2.55;;;1.20;;
81701;SDS011;71115;52.150;4.510;2023-07-28T11:22:18;3.40;;;1.40;;
81701;SDS011;71115;52.150;4.510;2023-07-28T11:24:44;3.65;;;1.48;;
81701;SDS011;71115;52.150;4.510;2023-07-28T11:27:10;3.05;;;1.30;;
81701;SDS011;71115;52.150;4.510;2023-07-28T11:29:36;3.45;;;1.50;;
81701;SDS011;71115;52.150;4.510;2023-07-28T11:32:03;3.80;;;1.50;;
81701;SDS011;71115;52.150;4.510;2023-07-28T11:34:33;2.85;;;1.20;;
81701;SDS011;71115;52.150;4.510;2023-07-28T11:37:00;2.65;;;1.30;;
81701;SDS011;71115;52.150;4.510;2023-07-28T11:41:52;5.82;;;2.00;;
81701;SDS011;71115;52.150;4.510;2023-07-28T11:44:20;4.80;;;1.20;;
81701;SDS011;71115;52.150;4.510;2023-07-28T11:49:16;3.60;;;1.60;;
81701;SDS011;71115;52.150;4.510;2023-07-28T11:51:45;2.83;;;1.50;;
81701;SDS011;71115;52.150;4.510;2023-07-28T11:54:11;3.03;;;1.40;;
81701;SDS011;71115;52.150;4.510;2023-07-28T11:56:41;4.68;;;1.50;;
81701;SDS011;71115;52.150;4.510;2023-07-28T11:59:08;3.28;;;1.55;;
81701;SDS011;71115;52.150;4.510;2023-07-28T12:01:34;3.05;;;1.20;;
81701;SDS011;71115;52.150;4.510;2023-07-28T12:04:18;3.20;;;1.35;;
81701;SDS011;71115;52.150;4.510;2023-07-28T12:07:05;3.88;;;1.75;;
81701;SDS011;71115;52.150;4.510;2023-07-28T12:09:32;3.83;;;1.33;;
81701;SDS011;71115;52.150;4.510;2023-07-28T12:11:59;2.40;;;1.10;;
81701;SDS011;71115;52.150;4.510;2023-07-28T12:14:34;3.03;;;1.40;;
81701;SDS011;71115;52.150;4.510;2023-07-28T12:17:00;3.22;;;1.58;;
81701;SDS011;71115;52.150;4.510;2023-07-28T12:19:28;3.42;;;1.35;;
81701;SDS011;71115;52.150;4.510;2023-07-28T12:21:54;4.35;;;1.30;;
81701;SDS011;71115;52.150;4.510;2023-07-28T12:24:20;2.83;;;1.40;;
81701;SDS011;71115;52.150;4.510;2023-07-28T12:26:46;3.17;;;1.40;;
81701;SDS011;71115;52.150;4.510;2023-07-28T12:29:13;3.85;;;1.38;;
81701;SDS011;71115;52.150;4.510;2023-07-28T12:31:39;5.20;;;1.63;;
81701;SDS011;71115;52.150;4.510;2023-07-28T12:34:05;3.33;;;1.20;;
81701;SDS011;71115;52.150;4.510;2023-07-28T12:36:31;3.25;;;1.50;;
81701;SDS011;71115;52.150;4.510;2023-07-28T12:38:57;3.90;;;1.58;;
81701;SDS011;71115;52.150;4.510;2023-07-28T12:43:49;3.13;;;1.23;;
81701;SDS011;71115;52.150;4.510;2023-07-28T12:46:15;3.60;;;1.40;;
81701;SDS011;71115;52.150;4.510;2023-07-28T12:48:41;3.17;;;1.40;;
81701;SDS011;71115;52.150;4.510;2023-07-28T12:51:07;2.70;;;1.30;;
81701;SDS011;71115;52.150;4.510;2023-07-28T12:53:33;2.05;;;0.98;;
81701;SDS011;71115;52.150;4.510;2023-07-28T12:55:59;3.72;;;1.48;;
81701;SDS011;71115;52.150;4.510;2023-07-28T12:58:25;3.38;;;1.30;;
81701;SDS011;71115;52.150;4.510;2023-07-28T13:00:51;3.25;;;1.35;;
81701;SDS011;71115;52.150;4.510;2023-07-28T13:03:18;2.78;;;1.20;;
81701;SDS011;71115;52.150;4.510;2023-07-28T13:05:43;2.67;;;1.42;;
81701;SDS011;71115;52.150;4.510;2023-07-28T13:08:12;3.15;;;1.30;;
81701;SDS011;71115;52.150;4.510;2023-07-28T13:10:38;4.07;;;1.30;;
81701;SDS011;71115;52.150;4.510;2023-07-28T13:13:04;2.60;;;1.10;;
81701;SDS011;71115;52.150;4.510;2023-07-28T13:15:30;2.67;;;1.30;;
81701;SDS011;71115;52.150;4.510;2023-07-28T13:17:55;3.40;;;1.30;;
81701;SDS011;71115;52.150;4.510;2023-07-28T13:20:21;3.08;;;1.25;;
81701;SDS011;71115;52.150;4.510;2023-07-28T13:22:47;3.50;;;1.30;;
81701;SDS011;71115;52.150;4.510;2023-07-28T13:25:14;4.32;;;1.27;;
81701;SDS011;71115;52.150;4.510;2023-07-28T13:27:40;3.50;;;1.30;;
81701;SDS011;71115;52.150;4.510;2023-07-28T13:30:06;3.45;;;1.45;;
81701;SDS011;71115;52.150;4.510;2023-07-28T13:32:32;2.80;;;1.42;;
81701;SDS011;71115;52.150;4.510;2023-07-28T13:34:58;2.40;;;1.25;;
81701;SDS011;71115;52.150;4.510;2023-07-28T13:37:24;2.47;;;1.23;;
81701;SDS011;71115;52.150;4.510;2023-07-28T13:39:50;2.88;;;1.20;;
81701;SDS011;71115;52.150;4.510;2023-07-28T13:42:17;2.40;;;1.10;;
81701;SDS011;71115;52.150;4.510;2023-07-28T13:44:43;2.03;;;1.00;;
81701;SDS011;71115;52.150;4.510;2023-07-28T13:47:09;3.50;;;1.42;;
81701;SDS011;71115;52.150;4.510;2023-07-28T13:49:35;4.00;;;1.50;;
81701;SDS011;71115;52.150;4.510;2023-07-28T13:52:02;2.42;;;1.10;;
81701;SDS011;71115;52.150;4.510;2023-07-28T13:54:28;3.63;;;1.20;;
81701;SDS011;71115;52.150;4.510;2023-07-28T13:56:54;3.40;;;1.25;;
81701;SDS011;71115;52.150;4.510;2023-07-28T13:59:20;3.00;;;1.38;;
81701;SDS011;71115;52.150;4.510;2023-07-28T14:01:47;2.53;;;1.20;;
81701;SDS011;71115;52.150;4.510;2023-07-28T14:04:13;3.47;;;1.20;;
81701;SDS011;71115;52.150;4.510;2023-07-28T14:06:39;3.50;;;1.27;;
81701;SDS011;71115;52.150;4.510;2023-07-28T14:09:05;3.40;;;1.20;;
81701;SDS011;71115;52.150;4.510;2023-07-28T14:11:31;2.90;;;1.30;;
81701;SDS011;71115;52.150;4.510;2023-07-28T14:13:57;3.05;;;1.20;;
81701;SDS011;71115;52.150;4.510;2023-07-28T14:16:23;2.13;;;1.10;;
81701;SDS011;71115;52.150;4.510;2023-07-28T14:18:49;2.13;;;1.25;;
81701;SDS011;71115;52.150;4.510;2023-07-28T14:23:41;3.33;;;1.30;;
81701;SDS011;71115;52.150;4.510;2023-07-28T14:26:07;2.58;;;1.25;;
81701;SDS011;71115;52.150;4.510;2023-07-28T14:28:33;4.97;;;1.70;;
81701;SDS011;71115;52.150;4.510;2023-07-28T14:30:59;3.00;;;1.30;;
81701;SDS011;71115;52.150;4.510;2023-07-28T14:33:26;3.85;;;1.30;;
81701;SDS011;71115;52.150;4.510;2023-07-28T14:35:52;3.15;;;1.30;;
81701;SDS011;71115;52.150;4.510;2023-07-28T14:38:18;3.08;;;1.08;;
81701;SDS011;71115;52.150;4.510;2023-07-28T14:43:15;2.60;;;1.00;;
81701;SDS011;71115;52.150;4.510;2023-07-28T14:45:41;4.03;;;1.33;;
81701;SDS011;71115;52.150;4.510;2023-07-28T14:48:07;2.60;;;1.20;;
81701;SDS011;71115;52.150;4.510;2023-07-28T14:50:33;3.17;;;1.50;;
81701;SDS011;71115;52.150;4.510;2023-07-28T14:53:00;2.25;;;1.10;;
81701;SDS011;71115;52.150;4.510;2023-07-28T14:55:26;2.33;;;1.13;;
81701;SDS011;71115;52.150;4.510;2023-07-28T15:00:18;2.75;;;1.00;;
81701;SDS011;71115;52.150;4.510;2023-07-28T15:02:44;2.33;;;1.00;;
81701;SDS011;71115;52.150;4.510;2023-07-28T15:05:10;2.65;;;1.17;;
81701;SDS011;71115;52.150;4.510;2023-07-28T15:07:36;2.47;;;1.10;;
81701;SDS011;71115;52.150;4.510;2023-07-28T15:12:28;2.38;;;1.00;;
81701;SDS011;71115;52.150;4.510;2023-07-28T15:14:54;2.35;;;1.10;;
81701;SDS011;71115;52.150;4.510;2023-07-28T15:17:20;2.67;;;1.15;;
81701;SDS011;71115;52.150;4.510;2023-07-28T15:19:46;2.50;;;1.15;;
81701;SDS011;71115;52.150;4.510;2023-07-28T15:22:12;2.88;;;1.42;;
81701;SDS011;71115;52.150;4.510;2023-07-28T15:24:38;2.63;;;1.20;;
81701;SDS011;71115;52.150;4.510;2023-07-28T15:27:04;3.67;;;1.65;;
81701;SDS011;71115;52.150;4.510;2023-07-28T15:29:30;3.08;;;1.42;;
81701;SDS011;71115;52.150;4.510;2023-07-28T15:31:56;3.10;;;1.30;;
81701;SDS011;71115;52.150;4.510;2023-07-28T15:34:22;2.88;;;1.40;;
81701;SDS011;71115;52.150;4.510;2023-07-28T15:36:48;2.50;;;1.10;;
81701;SDS011;71115;52.150;4.510;2023-07-28T15:39:14;2.85;;;1.30;;
81701;SDS011;71115;52.150;4.510;2023-07-28T15:41:40;2.33;;;1.00;;
81701;SDS011;71115;52.150;4.510;2023-07-28T15:44:06;3.00;;;1.00;;
81701;SDS011;71115;52.150;4.510;2023-07-28T15:46:32;1.98;;;0.90;;
81701;SDS011;71115;52.150;4.510;2023-07-28T15:49:00;2.83;;;1.40;;
81701;SDS011;71115;52.150;4.510;2023-07-28T15:51:26;2.83;;;1.17;;
81701;SDS011;71115;52.150;4.510;2023-07-28T15:53:52;2.38;;;1.25;;
81701;SDS011;71115;52.150;4.510;2023-07-28T15:56:18;2.97;;;1.13;;
81701;SDS011;71115;52.150;4.510;2023-07-28T15:58:44;2.10;;;1.00;;
81701;SDS011;71115;52.150;4.510;2023-07-28T16:01:10;2.50;;;1.10;;